createdAt,value
2023-03-11T00:01:41.597Z,93943.97
2023-03-11T00:11:48.268Z,93919.28
2023-03-11T00:21:54.620Z,93912.44
2023-03-11T00:32:00.923Z,93914.16
2023-03-11T00:42:08.314Z,93921.66
2023-03-11T00:52:14.620Z,93929.47
2023-03-11T01:02:20.905Z,93932.22
2023-03-11T01:12:27.450Z,93950.75
2023-03-11T01:22:33.909Z,93993.16
2023-03-11T01:32:40.312Z,94041.56
2023-03-11T01:42:46.691Z,94100.97
2023-03-11T01:52:52.975Z,94159.53
2023-03-11T02:03:00.129Z,94194.84
2023-03-11T02:13:06.542Z,94205.00
2023-03-11T02:23:15.564Z,94206.59
2023-03-11T02:33:22.637Z,94214.06
2023-03-11T02:43:47.904Z,94223.19
2023-03-11T02:53:57.319Z,94244.09
2023-03-11T03:04:03.946Z,94282.94
2023-03-11T03:14:10.305Z,94324.22
2023-03-11T03:24:17.179Z,94362.69
2023-03-11T03:34:23.488Z,94386.22
2023-03-11T03:44:31.785Z,94392.34
2023-03-11T03:54:38.755Z,94370.28
2023-03-11T04:04:45.459Z,94319.47
2023-03-11T04:14:51.826Z,94262.94
2023-03-11T04:24:58.212Z,94262.94
2023-03-11T04:35:05.124Z,94156.25
2023-03-11T04:45:12.401Z,94048.22
2023-03-11T04:55:18.714Z,93940.16
2023-03-11T05:29:16.843Z,93843.31
2023-03-11T05:39:22.129Z,93843.31
2023-03-11T05:49:28.974Z,93706.66
2023-03-11T05:59:36.614Z,93576.22
2023-03-11T06:09:42.945Z,93447.34
2023-03-11T06:20:27.599Z,93341.38
2023-03-11T06:30:32.977Z,93341.38
2023-03-11T06:40:39.990Z,93259.62
2023-03-11T06:50:48.440Z,93186.59
2023-03-11T07:00:55.187Z,93127.22
2023-03-11T07:11:09.873Z,93066.56
2023-03-11T07:21:17.873Z,93026.16
2023-03-11T07:31:27.526Z,92987.25
2023-03-11T07:41:35.546Z,92949.72
